Time;durP1;ratioP1;P1;durP2;ratioP2;P2;SDS_P1;SDS_P2;PMS_P1;PMS_P2;Temp;Humidity;BMP_temperature;BMP_pressure;BME280_temperature;BME280_humidity;BME280_pressure;Samples;Min_cycle;Max_cycle;Signal;HPM_P1;HPM_P2
2022/08/23 00:00:29;;;;;;;5.00;3.30;;;18.80;99.90;;;;;;4956609;29;20238;-78
2022/08/23 00:02:55;;;;;;;5.33;3.00;;;18.70;99.90;;;;;;4956771;29;20192;-78
2022/08/23 00:05:21;;;;;;;3.43;3.13;;;18.70;99.90;;;;;;4955474;29;20201;-77
2022/08/23 00:07:46;;;;;;;5.60;3.60;;;18.60;99.90;;;;;;4956636;29;20182;-78
2022/08/23 00:10:14;;;;;;;6.17;4.17;;;18.60;99.90;;;;;;4954974;29;20697;-78
2022/08/23 00:12:42;;;;;;;7.27;3.90;;;18.50;99.90;;;;;;4955342;28;20653;-78
2022/08/23 00:15:12;;;;;;;6.07;3.60;;;18.60;99.90;;;;;;4955417;29;20874;-78
2022/08/23 00:17:38;;;;;;;6.20;3.57;;;18.50;99.90;;;;;;4956327;29;21019;-78
2022/08/23 00:20:10;;;;;;;9.03;4.23;;;18.40;99.90;;;;;;4956015;29;20498;-78
2022/08/23 00:22:38;;;;;;;4.93;3.77;;;18.30;99.90;;;;;;4956248;28;20435;-77
2022/08/23 00:25:06;;;;;;;4.70;3.67;;;18.30;99.90;;;;;;4956287;29;20395;-77
2022/08/23 00:27:32;;;;;;;7.67;4.13;;;18.20;99.90;;;;;;4956159;29;20433;-77
2022/08/23 00:29:59;;;;;;;8.03;4.30;;;18.20;99.90;;;;;;4955751;29;20453;-77
2022/08/23 00:32:30;;;;;;;3.57;3.27;;;18.20;99.90;;;;;;4956156;29;20432;-78
2022/08/23 00:34:57;;;;;;;9.77;3.53;;;18.20;99.90;;;;;;4956213;29;20424;-78
2022/08/23 00:37:24;;;;;;;4.70;3.67;;;18.10;99.90;;;;;;4955911;29;20439;-78
2022/08/23 00:39:50;;;;;;;6.20;3.63;;;18.10;99.90;;;;;;4955757;29;20420;-78
2022/08/23 00:48:29;;;;;;;7.40;3.03;;;18.00;99.90;;;;;;4956114;29;20417;-78
2022/08/23 00:51:21;;;;;;;7.00;4.40;;;17.90;99.90;;;;;;4955680;29;20452;-77
2022/08/23 00:53:52;;;;;;;4.40;3.77;;;17.90;99.90;;;;;;4955733;28;20396;-76
2022/08/23 00:56:21;;;;;;;4.20;3.80;;;17.80;99.90;;;;;;4955612;29;20548;-78
2022/08/23 00:58:48;;;;;;;4.73;3.40;;;17.80;99.90;;;;;;4955682;29;20413;-77
2022/08/23 01:01:15;;;;;;;11.00;4.10;;;17.80;99.90;;;;;;4955510;29;20452;-77
2022/08/23 01:03:45;;;;;;;7.93;4.20;;;17.70;99.90;;;;;;4955751;29;20391;-78
2022/08/23 01:06:18;;;;;;;7.93;4.03;;;17.50;99.90;;;;;;4955780;29;20421;-78
2022/08/23 01:08:48;;;;;;;4.33;3.90;;;17.40;99.90;;;;;;4954940;29;20424;-78
2022/08/23 01:11:34;;;;;;;5.27;4.00;;;17.40;99.90;;;;;;4955974;29;20488;-77
2022/08/23 01:14:25;;;;;;;7.40;4.53;;;17.40;99.90;;;;;;4956009;29;20406;-77
2022/08/23 01:17:02;;;;;;;7.43;4.53;;;17.30;99.90;;;;;;4955591;28;20449;-79
2022/08/23 01:19:45;;;;;;;7.93;4.40;;;17.30;99.90;;;;;;4954551;29;20892;-78
2022/08/23 01:22:33;;;;;;;9.67;4.93;;;17.30;99.90;;;;;;4955549;29;20409;-79
2022/08/23 01:25:00;;;;;;;5.87;3.90;;;17.30;99.90;;;;;;4955593;29;20475;-78
2022/08/23 01:27:26;;;;;;;6.33;4.03;;;17.30;99.90;;;;;;4955304;29;20420;-77
2022/08/23 01:29:52;;;;;;;6.87;4.50;;;17.30;99.90;;;;;;4954792;29;20429;-78
2022/08/23 01:32:18;;;;;;;10.87;5.00;;;17.20;99.90;;;;;;4955187;29;20409;-78
2022/08/23 01:34:44;;;;;;;4.57;3.67;;;17.20;99.90;;;;;;4955165;29;20491;-78
2022/08/23 01:37:10;;;;;;;7.60;3.80;;;17.20;99.90;;;;;;4953846;29;20879;-76
2022/08/23 01:39:36;;;;;;;6.27;4.00;;;17.20;99.90;;;;;;4953959;29;20475;-78
2022/08/23 01:42:02;;;;;;;7.43;4.80;;;17.20;99.90;;;;;;4955174;29;20200;-77
2022/08/23 01:44:28;;;;;;;6.43;4.57;;;17.20;99.90;;;;;;4938173;29;20892;-78
2022/08/23 01:46:54;;;;;;;5.87;3.63;;;17.10;99.90;;;;;;4953872;29;20515;-79
2022/08/23 01:49:20;;;;;;;5.47;4.10;;;17.10;99.90;;;;;;4955200;29;20899;-77
2022/08/23 01:51:46;;;;;;;7.33;4.53;;;17.00;99.90;;;;;;4954818;29;20205;-77
2022/08/23 01:54:12;;;;;;;6.83;4.63;;;17.00;99.90;;;;;;4955588;29;20536;-78
2022/08/23 01:56:39;;;;;;;6.63;4.60;;;17.00;99.90;;;;;;4956278;29;20560;-77
2022/08/23 01:59:06;;;;;;;10.53;4.40;;;17.00;99.90;;;;;;4957180;28;20502;-77
2022/08/23 02:01:32;;;;;;;7.43;4.50;;;16.90;99.90;;;;;;4941694;29;20412;-77
2022/08/23 02:03:57;;;;;;;8.43;4.37;;;16.90;99.90;;;;;;4958954;29;20406;-77
2022/08/23 02:06:23;;;;;;;4.67;4.20;;;16.90;99.90;;;;;;4958863;29;20193;-77
2022/08/23 02:09:01;;;;;;;7.43;4.27;;;16.90;99.90;;;;;;4958805;29;20174;-78
2022/08/23 02:11:30;;;;;;;7.10;4.10;;;16.80;99.90;;;;;;4958623;29;20217;-78
2022/08/23 02:13:58;;;;;;;9.03;4.73;;;16.80;99.90;;;;;;4958749;29;20842;-78
2022/08/23 02:16:36;;;;;;;5.63;4.97;;;16.70;99.90;;;;;;4958551;29;20503;-78
2022/08/23 02:19:05;;;;;;;6.50;4.47;;;16.70;99.90;;;;;;4957793;29;20424;-77
2022/08/23 02:21:31;;;;;;;8.80;4.80;;;16.70;99.90;;;;;;4958626;28;20787;-78
2022/08/23 02:23:58;;;;;;;9.70;4.90;;;16.70;99.90;;;;;;4960516;29;20817;-79
2022/08/23 02:26:24;;;;;;;5.47;4.60;;;16.70;99.90;;;;;;4958817;29;20429;-78
2022/08/23 02:28:52;;;;;;;6.80;4.20;;;16.60;99.90;;;;;;4958648;29;20399;-78
2022/08/23 02:31:18;;;;;;;10.50;4.80;;;16.60;99.90;;;;;;4958089;29;20429;-77
2022/08/23 02:33:44;;;;;;;9.50;4.27;;;16.60;99.90;;;;;;4958195;29;20486;-77
2022/08/23 02:36:10;;;;;;;7.53;4.90;;;16.60;99.90;;;;;;4956839;29;20928;-77
2022/08/23 02:38:35;;;;;;;5.30;4.20;;;16.60;99.90;;;;;;4958196;29;20185;-77
2022/08/23 02:41:01;;;;;;;5.77;4.77;;;16.50;99.90;;;;;;4957867;29;20276;-77
2022/08/23 02:43:27;;;;;;;7.37;4.40;;;16.50;99.90;;;;;;4958411;29;20248;-78
2022/08/23 02:45:52;;;;;;;5.87;4.47;;;16.50;99.90;;;;;;4958043;29;20252;-76
2022/08/23 02:48:21;;;;;;;7.47;5.10;;;16.50;99.90;;;;;;4958053;29;20594;-78
2022/08/23 02:50:48;;;;;;;8.00;4.27;;;16.50;99.90;;;;;;4957852;29;20248;-78
2022/08/23 02:53:14;;;;;;;8.93;5.00;;;16.50;99.90;;;;;;4956775;29;20462;-78
2022/08/23 02:55:44;;;;;;;9.57;4.63;;;16.40;99.90;;;;;;4958183;29;20405;-77
2022/08/23 02:58:10;;;;;;;6.70;4.40;;;16.50;99.90;;;;;;4957700;29;20431;-77
2022/08/23 03:00:37;;;;;;;5.77;5.07;;;16.40;99.90;;;;;;4957398;29;20443;-78
2022/08/23 03:03:04;;;;;;;5.57;4.27;;;16.40;99.90;;;;;;4957980;29;20201;-78
2022/08/23 03:05:30;;;;;;;14.67;4.70;;;16.30;99.90;;;;;;4957855;29;20420;-78
2022/08/23 03:07:56;;;;;;;7.60;4.73;;;16.30;99.90;;;;;;4957776;29;20426;-78
2022/08/23 03:10:22;;;;;;;5.93;4.80;;;16.30;99.90;;;;;;4956561;28;20938;-78
2022/08/23 03:12:48;;;;;;;7.93;5.00;;;16.30;99.90;;;;;;4957578;29;20425;-78
2022/08/23 03:15:14;;;;;;;11.83;5.87;;;15.90;99.90;;;;;;4957813;29;20309;-78
2022/08/23 03:17:39;;;;;;;10.37;5.13;;;15.90;99.90;;;;;;4957645;29;20461;-78
2022/08/23 03:20:06;;;;;;;12.13;5.33;;;15.90;99.90;;;;;;4957378;29;20434;-79
2022/08/23 03:22:32;;;;;;;6.80;4.97;;;15.90;99.90;;;;;;4957495;29;20201;-79
2022/08/23 03:24:58;;;;;;;7.87;4.97;;;15.80;99.90;;;;;;4957341;29;20417;-78
2022/08/23 03:27:24;;;;;;;11.90;4.77;;;15.80;99.90;;;;;;4956711;29;20189;-79
2022/08/23 03:29:49;;;;;;;4.47;4.00;;;15.80;99.90;;;;;;4957526;28;20184;-78
2022/08/23 03:32:15;;;;;;;5.40;4.60;;;15.80;99.90;;;;;;4958811;29;20799;-77
2022/08/23 03:34:41;;;;;;;9.33;5.13;;;15.80;99.90;;;;;;4957661;29;20248;-76
2022/08/23 03:37:06;;;;;;;11.30;4.50;;;15.80;99.90;;;;;;4957138;29;20209;-78
2022/08/23 03:39:32;;;;;;;6.87;4.47;;;15.80;99.90;;;;;;4940000;29;20193;-77
2022/08/23 03:41:58;;;;;;;8.70;5.00;;;15.70;99.90;;;;;;4956758;29;20201;-78
2022/08/23 03:44:23;;;;;;;5.87;5.27;;;15.70;99.90;;;;;;4956998;29;20178;-78
2022/08/23 03:46:50;;;;;;;6.07;5.00;;;15.70;99.90;;;;;;4955760;28;20201;-78
2022/08/23 03:49:15;;;;;;;6.40;4.70;;;15.70;99.90;;;;;;4940077;29;20224;-77
2022/08/23 03:51:41;;;;;;;7.17;5.33;;;15.70;99.90;;;;;;4955442;28;20419;-77
2022/08/23 03:54:06;;;;;;;5.27;4.43;;;15.70;99.90;;;;;;4956829;29;20659;-77
2022/08/23 03:56:37;;;;;;;11.83;5.27;;;15.60;99.90;;;;;;4939552;29;20193;-77
2022/08/23 03:59:09;;;;;;;5.70;4.73;;;15.60;99.90;;;;;;4956879;29;20635;-76
2022/08/23 04:01:35;;;;;;;8.23;5.33;;;15.70;99.90;;;;;;4956438;29;20516;-76
2022/08/23 04:04:01;;;;;;;12.13;4.67;;;15.60;99.90;;;;;;4956729;29;20861;-76
2022/08/23 04:06:27;;;;;;;7.40;4.40;;;15.60;99.90;;;;;;4956660;29;20200;-76
2022/08/23 04:08:53;;;;;;;5.70;4.80;;;15.60;99.90;;;;;;4956590;29;20543;-76
2022/08/23 04:11:19;;;;;;;17.30;5.43;;;15.50;99.90;;;;;;4956213;29;20460;-77
2022/08/23 04:13:46;;;;;;;9.00;5.00;;;15.50;99.90;;;;;;4955182;28;20396;-76
2022/08/23 04:16:12;;;;;;;8.30;6.00;;;15.50;99.90;;;;;;4956522;29;20448;-78
2022/08/23 04:18:38;;;;;;;8.57;5.73;;;15.50;99.90;;;;;;4956379;29;20461;-75
2022/08/23 04:21:09;;;;;;;7.53;5.93;;;15.40;99.90;;;;;;4953761;28;20445;-77
2022/08/23 04:23:35;;;;;;;5.50;4.37;;;15.30;99.90;;;;;;4956524;28;20475;-78
2022/08/23 04:26:02;;;;;;;7.10;5.00;;;15.30;99.90;;;;;;4956469;29;20413;-77
2022/08/23 04:28:27;;;;;;;7.07;5.10;;;15.30;99.90;;;;;;4956207;29;20399;-77
2022/08/23 04:30:54;;;;;;;7.93;4.33;;;15.30;99.90;;;;;;4955880;29;20473;-78
2022/08/23 04:33:19;;;;;;;6.53;4.43;;;15.30;99.90;;;;;;4956092;29;20185;-79
2022/08/23 04:35:45;;;;;;;7.00;4.60;;;15.30;99.90;;;;;;4956096;29;20423;-78
2022/08/23 04:38:11;;;;;;;5.83;4.93;;;15.30;99.90;;;;;;4956028;29;20557;-77
2022/08/23 04:43:20;;;;;;;9.80;5.37;;;15.30;99.90;;;;;;4955071;28;20383;-78
2022/08/23 04:45:47;;;;;;;5.50;4.97;;;15.30;99.90;;;;;;4956204;29;20428;-77
2022/08/23 04:48:13;;;;;;;8.83;5.43;;;15.30;99.90;;;;;;4955893;29;20181;-76
2022/08/23 04:50:42;;;;;;;6.13;5.40;;;15.30;99.90;;;;;;4955370;29;20422;-78
2022/08/23 04:53:07;;;;;;;6.97;5.10;;;15.30;99.90;;;;;;4955844;29;20189;-78
2022/08/23 04:55:33;;;;;;;7.00;4.53;;;15.30;99.90;;;;;;4955852;29;20794;-78
2022/08/23 04:57:59;;;;;;;5.37;4.87;;;15.30;99.90;;;;;;4955955;29;20206;-78
2022/08/23 05:00:25;;;;;;;5.40;4.60;;;15.30;99.90;;;;;;4953824;29;20520;-77
2022/08/23 05:02:51;;;;;;;7.40;5.37;;;15.30;99.90;;;;;;4954675;29;20189;-78
2022/08/23 05:05:18;;;;;;;11.33;5.77;;;15.30;99.90;;;;;;4955743;29;20261;-77
2022/08/23 05:07:44;;;;;;;5.63;4.63;;;15.30;99.90;;;;;;4956258;29;20487;-77
2022/08/23 05:10:11;;;;;;;8.17;5.40;;;15.30;99.90;;;;;;4958045;29;20920;-77
2022/08/23 05:12:38;;;;;;;7.53;5.10;;;15.20;99.90;;;;;;4956584;29;20869;-77
2022/08/23 05:15:04;;;;;;;5.47;4.90;;;15.20;99.90;;;;;;4956455;29;20411;-76
2022/08/23 05:17:30;;;;;;;6.40;4.80;;;15.40;99.90;;;;;;4956042;29;20819;-77
2022/08/23 05:19:56;;;;;;;5.73;5.20;;;15.50;99.90;;;;;;4955767;29;20421;-76
2022/08/23 05:22:21;;;;;;;9.53;6.20;;;15.50;99.90;;;;;;4955482;29;20178;-77
2022/08/23 05:24:47;;;;;;;8.60;6.07;;;15.60;99.90;;;;;;4955521;29;20184;-76
2022/08/23 05:27:13;;;;;;;6.40;5.10;;;15.60;99.90;;;;;;4955453;29;20537;-76
2022/08/23 05:29:39;;;;;;;9.27;5.30;;;15.70;99.90;;;;;;4955356;29;20181;-78
2022/08/23 05:32:05;;;;;;;6.27;4.90;;;15.70;99.90;;;;;;4954938;28;20427;-77
2022/08/23 05:34:30;;;;;;;4.83;4.37;;;15.80;99.90;;;;;;4955122;29;20906;-76
2022/08/23 05:36:56;;;;;;;7.47;5.40;;;15.90;99.90;;;;;;4955232;29;20677;-76
2022/08/23 05:39:22;;;;;;;8.63;5.40;;;15.90;99.90;;;;;;4954140;28;20614;-76
2022/08/23 05:41:47;;;;;;;5.57;5.03;;;16.00;99.90;;;;;;4954865;29;20212;-77
2022/08/23 05:44:13;;;;;;;7.77;4.70;;;16.20;99.90;;;;;;4954089;29;20221;-76
2022/08/23 05:46:39;;;;;;;9.53;7.23;;;16.30;99.90;;;;;;4954999;29;20283;-76
2022/08/23 05:49:05;;;;;;;8.80;5.43;;;16.30;99.90;;;;;;4955073;29;20182;-76
2022/08/23 05:51:33;;;;;;;9.73;5.70;;;16.50;99.90;;;;;;4953511;29;20576;-77
2022/08/23 05:54:05;;;;;;;8.30;5.70;;;16.50;99.90;;;;;;4954889;29;20384;-77
2022/08/23 05:56:36;;;;;;;7.80;5.60;;;16.60;99.90;;;;;;4955067;29;20413;-76
2022/08/23 05:59:08;;;;;;;8.70;4.63;;;16.80;99.90;;;;;;4955040;29;20420;-77
2022/08/23 06:01:34;;;;;;;6.53;4.77;;;17.00;99.90;;;;;;4954566;29;20437;-76
2022/08/23 06:04:02;;;;;;;9.13;5.03;;;17.10;99.90;;;;;;4955177;29;20419;-76
2022/08/23 06:06:28;;;;;;;8.80;4.73;;;17.30;99.90;;;;;;4955101;29;20496;-77
2022/08/23 06:08:54;;;;;;;12.30;4.93;;;17.40;99.90;;;;;;4955174;29;20509;-76
2022/08/23 06:11:22;;;;;;;8.57;5.47;;;17.60;99.90;;;;;;4954489;29;20197;-77
2022/08/23 06:13:50;;;;;;;12.33;5.37;;;17.70;99.90;;;;;;4953776;29;20181;-76
2022/08/23 06:16:22;;;;;;;6.10;4.63;;;17.70;99.90;;;;;;4955114;29;20413;-76
2022/08/23 06:18:48;;;;;;;18.57;5.77;;;17.80;99.90;;;;;;4955049;29;20417;-77
2022/08/23 06:21:17;;;;;;;7.23;5.67;;;17.90;99.90;;;;;;4954329;29;20426;-76
2022/08/23 06:23:46;;;;;;;7.40;5.33;;;17.90;99.90;;;;;;4954868;29;20476;-77
2022/08/23 06:26:24;;;;;;;6.33;4.77;;;18.00;99.90;;;;;;4955225;29;20417;-77
2022/08/23 06:28:52;;;;;;;10.03;5.43;;;17.90;99.90;;;;;;4954861;29;20391;-76
2022/08/23 06:31:44;;;;;;;10.13;4.70;;;17.90;99.90;;;;;;4954404;29;20433;-77
2022/08/23 06:34:11;;;;;;;9.40;5.23;;;17.80;99.90;;;;;;4954535;29;20417;-77
2022/08/23 06:36:37;;;;;;;8.60;5.43;;;18.00;99.90;;;;;;4954600;29;20431;-77
2022/08/23 06:39:07;;;;;;;9.77;5.47;;;18.00;99.90;;;;;;4954844;29;20488;-77
2022/08/23 06:41:33;;;;;;;7.87;5.47;;;18.10;99.90;;;;;;4954220;29;20194;-77
2022/08/23 06:43:59;;;;;;;8.03;4.83;;;18.20;99.90;;;;;;4954911;28;20425;-76
2022/08/23 06:46:27;;;;;;;7.30;5.33;;;18.30;99.90;;;;;;4957787;29;20441;-78
2022/08/23 06:48:53;;;;;;;10.20;5.80;;;18.40;99.90;;;;;;4957085;29;20530;-78
2022/08/23 06:51:27;;;;;;;7.30;5.13;;;18.70;99.90;;;;;;4957959;29;20447;-77
2022/08/23 06:53:55;;;;;;;7.77;5.30;;;18.80;99.90;;;;;;4958223;29;20537;-78
2022/08/23 06:56:23;;;;;;;6.83;4.80;;;19.00;99.90;;;;;;4957799;29;20388;-77
2022/08/23 06:58:49;;;;;;;7.60;5.67;;;19.30;99.90;;;;;;4956808;29;20428;-77
2022/08/23 07:01:49;;;;;;;6.50;5.13;;;19.50;99.90;;;;;;4957436;29;20448;-80
2022/08/23 07:04:21;;;;;;;8.63;4.40;;;19.80;99.90;;;;;;4957889;29;20846;-82
2022/08/23 07:06:47;;;;;;;10.53;5.20;;;20.10;99.90;;;;;;4957825;28;20925;-82
2022/08/23 07:09:13;;;;;;;6.53;4.63;;;20.20;99.90;;;;;;4953350;29;20430;-82
2022/08/23 07:11:40;;;;;;;6.00;4.67;;;20.30;99.90;;;;;;4956022;29;20416;-82
2022/08/23 07:14:11;;;;;;;8.20;4.43;;;20.30;99.90;;;;;;4956559;29;20417;-82
2022/08/23 07:16:47;;;;;;;15.03;4.83;;;20.20;99.90;;;;;;4957510;28;20421;-82
2022/08/23 07:19:13;;;;;;;5.97;4.13;;;20.30;99.90;;;;;;4957453;28;20779;-83
2022/08/23 07:21:39;;;;;;;7.37;3.80;;;20.20;99.90;;;;;;4957441;28;20472;-84
2022/08/23 07:24:05;;;;;;;6.43;4.27;;;20.30;99.90;;;;;;4957788;28;20508;-80
2022/08/23 07:26:31;;;;;;;6.63;4.47;;;20.60;99.90;;;;;;4957555;28;20414;-80
2022/08/23 07:28:57;;;;;;;9.93;5.33;;;20.70;99.90;;;;;;4957712;28;20991;-80
2022/08/23 07:31:27;;;;;;;4.60;4.20;;;20.70;99.90;;;;;;4959242;28;21021;-80
2022/08/23 07:33:54;;;;;;;10.17;3.97;;;20.80;99.90;;;;;;4957843;28;20183;-79
2022/08/23 07:36:22;;;;;;;7.50;4.27;;;21.00;99.90;;;;;;4957272;28;20409;-79
2022/08/23 07:38:48;;;;;;;7.77;3.63;;;21.10;99.90;;;;;;4957161;28;20422;-79
2022/08/23 07:41:16;;;;;;;8.00;4.70;;;21.20;99.90;;;;;;4956897;28;20468;-80
2022/08/23 07:43:42;;;;;;;13.70;4.20;;;21.40;99.90;;;;;;4955795;29;20853;-79
2022/08/23 07:46:09;;;;;;;9.67;3.40;;;21.60;99.90;;;;;;4956951;28;20519;-79
2022/08/23 07:48:35;;;;;;;6.13;3.63;;;21.50;99.90;;;;;;4957010;28;20417;-79
2022/08/23 07:51:03;;;;;;;8.30;3.70;;;21.50;99.90;;;;;;4956578;28;20437;-79
2022/08/23 07:53:29;;;;;;;6.77;3.23;;;21.20;99.90;;;;;;4957025;28;20421;-79
2022/08/23 07:55:56;;;;;;;8.20;3.33;;;21.40;99.90;;;;;;4957031;28;20425;-80
2022/08/23 07:58:23;;;;;;;6.33;3.60;;;21.50;99.90;;;;;;4956833;28;20205;-80
2022/08/23 08:00:52;;;;;;;6.97;3.60;;;21.60;99.90;;;;;;4955166;28;20436;-80
2022/08/23 08:03:20;;;;;;;5.40;3.27;;;21.70;99.90;;;;;;4956826;28;20409;-79
2022/08/23 08:05:46;;;;;;;4.60;2.97;;;21.80;99.90;;;;;;4956703;28;20415;-79
2022/08/23 08:08:11;;;;;;;6.80;3.00;;;21.90;99.90;;;;;;4957025;28;20516;-79
2022/08/23 08:10:40;;;;;;;6.83;3.00;;;22.00;99.90;;;;;;4956074;28;20448;-79
2022/08/23 08:13:07;;;;;;;9.83;3.03;;;22.00;99.90;;;;;;4955522;29;20205;-80
2022/08/23 08:15:33;;;;;;;9.10;2.90;;;22.00;99.90;;;;;;4955602;29;20428;-79
2022/08/23 08:17:59;;;;;;;22.40;4.13;;;22.30;99.90;;;;;;4956442;28;20456;-79
2022/08/23 08:20:27;;;;;;;21.57;4.30;;;22.50;99.90;;;;;;4956240;28;20441;-80
2022/08/23 08:22:53;;;;;;;10.80;3.20;;;22.90;99.90;;;;;;4956427;28;20413;-80
2022/08/23 08:25:19;;;;;;;13.70;3.83;;;23.40;99.90;;;;;;4956151;28;20508;-80
2022/08/23 08:27:44;;;;;;;12.60;3.43;;;23.70;99.90;;;;;;4956495;29;20540;-79
2022/08/23 08:30:11;;;;;;;14.63;3.53;;;24.20;99.90;;;;;;4954762;28;20220;-80
2022/08/23 08:32:37;;;;;;;12.13;3.60;;;24.40;99.90;;;;;;4956500;28;20777;-80
2022/08/23 08:35:04;;;;;;;15.10;3.30;;;24.20;99.90;;;;;;4956228;28;20421;-80
2022/08/23 08:37:30;;;;;;;14.20;3.70;;;24.70;99.90;;;;;;4955011;28;20554;-80
2022/08/23 08:39:57;;;;;;;20.57;3.70;;;25.30;99.90;;;;;;4955254;29;20511;-80
2022/08/23 08:42:32;;;;;;;21.20;4.33;;;26.00;99.90;;;;;;4954452;29;20432;-80
2022/08/23 08:45:10;;;;;;;16.63;2.87;;;26.70;99.90;;;;;;4955903;29;20817;-77
2022/08/23 08:47:46;;;;;;;15.40;3.50;;;27.40;99.90;;;;;;4955894;29;20548;-78
2022/08/23 08:50:23;;;;;;;11.00;3.10;;;27.50;99.90;;;;;;4955491;29;20442;-76
2022/08/23 08:53:12;;;;;;;7.73;3.10;;;27.80;99.90;;;;;;4955822;29;20416;-78
2022/08/23 08:55:51;;;;;;;8.27;2.80;;;28.20;99.90;;;;;;4946866;29;20487;-77
2022/08/23 08:58:35;;;;;;;11.70;3.23;;;27.70;99.90;;;;;;4955998;29;20471;-77
2022/08/23 09:01:01;;;;;;;10.07;2.97;;;27.70;99.90;;;;;;4955309;29;20519;-80
2022/08/23 09:03:31;;;;;;;6.43;3.03;;;27.80;99.90;;;;;;4954711;28;20440;-80
2022/08/23 09:06:29;;;;;;;13.07;2.77;;;28.20;99.90;;;;;;4955590;29;20468;-80
2022/08/23 09:09:24;;;;;;;5.13;3.00;;;27.70;99.90;;;;;;4955549;29;20413;-78
2022/08/23 09:11:49;;;;;;;7.57;3.13;;;27.80;99.90;;;;;;4953482;29;20444;-78
2022/08/23 09:14:27;;;;;;;9.70;3.20;;;28.30;99.90;;;;;;4954309;29;20435;-78
2022/08/23 09:17:04;;;;;;;7.33;3.10;;;28.90;99.90;;;;;;4955509;29;20193;-78
2022/08/23 09:19:36;;;;;;;12.50;2.70;;;28.90;99.90;;;;;;4955288;29;20415;-79
2022/08/23 09:22:10;;;;;;;9.50;3.23;;;29.20;99.90;;;;;;4955247;29;20464;-79
2022/08/23 09:24:35;;;;;;;5.87;3.23;;;28.80;99.90;;;;;;4955609;29;20909;-78
2022/08/23 09:27:02;;;;;;;8.17;2.80;;;29.00;99.90;;;;;;4954782;29;20423;-78
2022/08/23 09:29:31;;;;;;;11.63;3.47;;;30.10;99.90;;;;;;4954897;29;20548;-79
2022/08/23 09:32:01;;;;;;;6.90;2.80;;;30.60;99.90;;;;;;4955069;28;20463;-79
2022/08/23 09:34:29;;;;;;;11.57;3.10;;;30.40;99.90;;;;;;4954282;29;20431;-78
2022/08/23 09:37:08;;;;;;;5.53;2.90;;;31.20;99.90;;;;;;4955147;29;20575;-78
2022/08/23 09:39:40;;;;;;;5.70;2.67;;;30.90;99.90;;;;;;4954874;28;20511;-80
2022/08/23 09:42:32;;;;;;;6.80;3.23;;;30.70;99.90;;;;;;4955140;28;20560;-77
2022/08/23 09:44:58;;;;;;;7.23;2.33;;;31.30;99.90;;;;;;4955016;28;20428;-77
2022/08/23 09:47:40;;;;;;;8.43;2.70;;;32.30;99.90;;;;;;4955264;28;20994;-78
2022/08/23 09:50:24;;;;;;;7.47;3.07;;;30.90;99.90;;;;;;4957089;28;20200;-74
2022/08/23 09:53:05;;;;;;;5.93;2.50;;;30.40;99.90;;;;;;4955614;29;20412;-76
2022/08/23 09:55:39;;;;;;;7.57;2.50;;;31.00;99.90;;;;;;4955407;28;20440;-76
2022/08/23 09:58:17;;;;;;;6.73;2.43;;;30.50;99.90;;;;;;4955020;28;20456;-77
2022/08/23 10:00:43;;;;;;;5.27;2.60;;;30.10;99.90;;;;;;4953192;28;20448;-77
2022/08/23 10:03:27;;;;;;;5.73;2.50;;;29.40;99.90;;;;;;4955085;28;20424;-77
2022/08/23 10:05:59;;;;;;;6.13;2.60;;;29.80;99.90;;;;;;4954953;28;20471;-77
2022/08/23 10:08:31;;;;;;;9.30;3.03;;;30.70;99.90;;;;;;4955066;28;20555;-76
2022/08/23 10:11:19;;;;;;;4.03;2.37;;;31.20;99.90;;;;;;4954396;28;20459;-74
2022/08/23 10:13:45;;;;;;;8.63;2.80;;;31.10;99.90;;;;;;4954574;28;20510;-75
2022/08/23 10:16:29;;;;;;;8.30;2.30;;;30.90;99.90;;;;;;4953444;29;20469;-76
2022/08/23 10:19:28;;;;;;;11.57;2.90;;;31.70;99.90;;;;;;4953833;28;20511;-76
2022/08/23 10:22:02;;;;;;;6.50;2.40;;;32.60;99.90;;;;;;4958065;28;20771;-77
2022/08/23 10:24:48;;;;;;;5.40;2.50;;;32.40;97.30;;;;;;4958418;28;20411;-75
2022/08/23 10:30:19;;;;;;;5.57;2.70;;;31.80;97.60;;;;;;4958109;28;20523;-75
2022/08/23 10:33:01;;;;;;;7.60;2.80;;;30.50;99.90;;;;;;4958411;29;20412;-75
2022/08/23 10:35:37;;;;;;;5.83;2.80;;;30.70;97.60;;;;;;4958335;29;20408;-75
2022/08/23 10:38:16;;;;;;;8.33;2.97;;;31.70;99.30;;;;;;4957858;29;21301;-76
2022/08/23 10:41:00;;;;;;;4.47;2.53;;;31.50;97.50;;;;;;4949156;28;20802;-76
2022/08/23 10:43:59;;;;;;;7.70;3.20;;;32.00;97.00;;;;;;4958193;28;20424;-75
2022/08/23 10:46:28;;;;;;;9.93;3.20;;;32.10;96.80;;;;;;4957925;29;20526;-76
2022/08/23 10:48:58;;;;;;;6.60;2.53;;;31.30;95.80;;;;;;4957902;28;20416;-75
2022/08/23 10:51:33;;;;;;;4.60;2.63;;;31.10;97.80;;;;;;4957826;29;20447;-75
2022/08/23 10:54:05;;;;;;;5.90;2.27;;;31.80;96.80;;;;;;4958483;29;20463;-76
2022/08/23 10:56:30;;;;;;;7.77;2.40;;;32.50;94.90;;;;;;4958012;29;20425;-75
2022/08/23 10:58:58;;;;;;;6.10;2.60;;;32.40;94.70;;;;;;4957567;29;20432;-75
2022/08/23 11:01:49;;;;;;;5.10;2.77;;;32.20;92.10;;;;;;4956952;28;20201;-75
2022/08/23 11:04:20;;;;;;;6.87;2.50;;;32.90;92.00;;;;;;4957255;28;20491;-76
2022/08/23 11:06:52;;;;;;;6.87;2.13;;;33.40;90.80;;;;;;4955355;29;20959;-77
2022/08/23 11:09:20;;;;;;;4.83;1.97;;;33.60;88.40;;;;;;4946626;29;20418;-76
2022/08/23 11:11:48;;;;;;;5.50;2.37;;;31.90;90.20;;;;;;4955192;29;20987;-78
2022/08/23 11:14:36;;;;;;;4.77;1.70;;;31.50;91.30;;;;;;4956436;29;20951;-76
2022/08/23 11:17:06;;;;;;;5.87;1.90;;;31.60;92.10;;;;;;4950926;29;20852;-75
2022/08/23 11:19:58;;;;;;;4.70;1.83;;;32.30;92.10;;;;;;4954858;29;20409;-80
2022/08/23 11:22:28;;;;;;;5.23;2.57;;;33.00;90.60;;;;;;4953685;29;20420;-76
2022/08/23 11:25:24;;;;;;;6.13;2.57;;;33.90;88.40;;;;;;4957579;29;20415;-76
2022/08/23 11:28:19;;;;;;;5.57;2.30;;;34.50;84.40;;;;;;4957476;29;20420;-76
2022/08/23 11:30:56;;;;;;;5.47;2.50;;;34.50;80.70;;;;;;4956555;28;20436;-75
2022/08/23 11:33:28;;;;;;;3.00;2.03;;;33.50;82.20;;;;;;4956155;29;20427;-76
2022/08/23 11:36:10;;;;;;;6.13;2.50;;;33.30;83.70;;;;;;4962517;28;21004;-77
2022/08/23 11:38:47;;;;;;;4.70;2.00;;;33.30;85.10;;;;;;4958790;28;20460;-76
2022/08/23 11:41:19;;;;;;;5.13;1.93;;;33.50;82.30;;;;;;4957027;28;20432;-76
2022/08/23 11:43:55;;;;;;;3.00;2.00;;;33.20;83.80;;;;;;4958477;29;20412;-76
2022/08/23 11:46:31;;;;;;;3.77;2.17;;;33.70;84.00;;;;;;4957834;29;20435;-77
2022/08/23 11:49:29;;;;;;;5.70;2.40;;;33.70;83.10;;;;;;4958522;28;20749;-75
2022/08/23 11:52:35;;;;;;;5.70;1.90;;;34.00;81.50;;;;;;4957020;28;20439;-77
2022/08/23 11:55:16;;;;;;;5.40;1.97;;;33.50;83.10;;;;;;4959012;28;20430;-77
2022/08/23 11:58:20;;;;;;;4.60;2.07;;;32.90;81.60;;;;;;4958960;28;20818;-76
2022/08/23 12:01:08;;;;;;;3.97;2.20;;;33.00;81.20;;;;;;4958255;28;20602;-77
2022/08/23 12:03:51;;;;;;;5.80;2.80;;;33.20;81.30;;;;;;4958885;28;20404;-78
2022/08/23 12:06:45;;;;;;;4.97;2.70;;;33.80;80.30;;;;;;4958398;28;20415;-77
2022/08/23 12:09:21;;;;;;;5.07;2.30;;;33.90;78.10;;;;;;4962235;28;20799;-77
2022/08/23 12:11:56;;;;;;;6.17;2.30;;;33.40;80.50;;;;;;4964718;28;20432;-76
2022/08/23 12:14:30;;;;;;;5.43;2.20;;;34.00;78.30;;;;;;4965113;29;20904;-77
2022/08/23 12:17:24;;;;;;;4.13;2.10;;;33.70;77.70;;;;;;4965025;29;20471;-77
2022/08/23 12:20:09;;;;;;;5.80;2.50;;;33.60;77.60;;;;;;4966874;28;20421;-78
2022/08/23 12:22:59;;;;;;;4.90;2.40;;;33.60;79.40;;;;;;4965880;29;20427;-77
2022/08/23 12:25:25;;;;;;;4.57;2.20;;;33.80;77.90;;;;;;4964750;29;20504;-77
2022/08/23 12:28:01;;;;;;;5.33;2.63;;;33.60;78.40;;;;;;4966136;29;20471;-77
2022/08/23 12:30:33;;;;;;;8.60;2.30;;;33.10;79.20;;;;;;4961295;29;20211;-77
2022/08/23 12:33:37;;;;;;;6.23;2.17;;;32.90;80.20;;;;;;4959170;29;20401;-76
2022/08/23 12:36:15;;;;;;;4.20;1.80;;;33.00;80.20;;;;;;4960150;29;20420;-76
2022/08/23 12:39:03;;;;;;;5.73;2.17;;;33.30;79.20;;;;;;4960779;29;20468;-77
2022/08/23 12:41:34;;;;;;;5.03;2.00;;;33.90;77.50;;;;;;4961837;28;20432;-76
2022/08/23 12:44:08;;;;;;;4.97;2.43;;;34.30;76.50;;;;;;4960477;29;20475;-76
2022/08/23 12:46:34;;;;;;;4.77;1.90;;;34.20;75.30;;;;;;4958954;29;20428;-76
2022/08/23 12:49:00;;;;;;;5.00;2.40;;;34.10;75.90;;;;;;4961125;29;20499;-77
2022/08/23 12:51:26;;;;;;;7.13;2.47;;;34.50;76.80;;;;;;4958772;29;20204;-76
2022/08/23 12:53:52;;;;;;;10.57;2.40;;;34.90;73.00;;;;;;4960168;29;20423;-76
2022/08/23 12:56:24;;;;;;;4.20;2.00;;;34.90;72.70;;;;;;4961468;29;20508;-78
2022/08/23 12:58:58;;;;;;;2.93;1.70;;;34.60;72.70;;;;;;4960279;29;20692;-76
2022/08/23 13:01:26;;;;;;;5.93;2.23;;;34.60;75.50;;;;;;4959546;28;20432;-77
2022/08/23 13:03:58;;;;;;;6.07;2.33;;;35.20;73.00;;;;;;4959752;29;20491;-76
2022/08/23 13:06:38;;;;;;;4.30;1.93;;;35.20;70.60;;;;;;4957343;29;20424;-77
2022/08/23 13:09:13;;;;;;;4.20;2.00;;;34.40;71.10;;;;;;4942637;29;20428;-76
2022/08/23 13:11:42;;;;;;;6.83;2.30;;;34.50;73.10;;;;;;4959490;29;20436;-75
2022/08/23 13:14:32;;;;;;;3.47;2.37;;;34.80;73.50;;;;;;4960274;29;20420;-78
2022/08/23 13:17:25;;;;;;;4.20;2.23;;;34.90;69.80;;;;;;4959340;29;20464;-76